sensor_id;sensor_type;location;lat;lon;timestamp;temperature;humidity
80230;DHT22;69540;42.136;24.742;2023-07-16T00:02:25;31.00;33.00
80230;DHT22;69540;42.136;24.742;2023-07-16T00:04:50;31.00;33.00
80230;DHT22;69540;42.136;24.742;2023-07-16T00:07:16;31.00;33.00
80230;DHT22;69540;42.136;24.742;2023-07-16T00:09:44;30.90;32.90
80230;DHT22;69540;42.136;24.742;2023-07-16T00:12:09;30.90;32.90
80230;DHT22;69540;42.136;24.742;2023-07-16T00:14:35;30.90;32.80
80230;DHT22;69540;42.136;24.742;2023-07-16T00:17:01;30.90;32.80
80230;DHT22;69540;42.136;24.742;2023-07-16T00:19:26;30.90;32.80
80230;DHT22;69540;42.136;24.742;2023-07-16T00:21:52;30.90;32.90
80230;DHT22;69540;42.136;24.742;2023-07-16T00:24:17;30.90;32.90
80230;DHT22;69540;42.136;24.742;2023-07-16T00:26:43;31.00;34.10
80230;DHT22;69540;42.136;24.742;2023-07-16T00:29:09;31.00;33.00
80230;DHT22;69540;42.136;24.742;2023-07-16T00:31:34;31.00;33.00
80230;DHT22;69540;42.136;24.742;2023-07-16T00:34:00;31.00;33.00
80230;DHT22;69540;42.136;24.742;2023-07-16T00:36:26;31.00;33.10
80230;DHT22;69540;42.136;24.742;2023-07-16T00:38:51;30.90;32.90
80230;DHT22;69540;42.136;24.742;2023-07-16T00:41:17;30.90;32.90
80230;DHT22;69540;42.136;24.742;2023-07-16T00:43:42;31.00;32.90
80230;DHT22;69540;42.136;24.742;2023-07-16T00:46:09;31.00;33.00
80230;DHT22;69540;42.136;24.742;2023-07-16T00:48:35;31.00;32.90
80230;DHT22;69540;42.136;24.742;2023-07-16T00:51:02;31.00;32.90
80230;DHT22;69540;42.136;24.742;2023-07-16T00:53:30;31.00;32.90
80230;DHT22;69540;42.136;24.742;2023-07-16T00:55:55;31.00;32.90
80230;DHT22;69540;42.136;24.742;2023-07-16T00:58:21;30.90;32.90
80230;DHT22;69540;42.136;24.742;2023-07-16T01:00:47;31.00;33.00
80230;DHT22;69540;42.136;24.742;2023-07-16T01:03:14;30.90;32.80
80230;DHT22;69540;42.136;24.742;2023-07-16T01:06:04;30.90;32.90
80230;DHT22;69540;42.136;24.742;2023-07-16T01:11:00;30.90;32.80
80230;DHT22;69540;42.136;24.742;2023-07-16T01:13:27;31.00;33.00
80230;DHT22;69540;42.136;24.742;2023-07-16T01:15:53;30.90;32.80
80230;DHT22;69540;42.136;24.742;2023-07-16T01:18:19;30.90;32.80
80230;DHT22;69540;42.136;24.742;2023-07-16T01:20:45;31.00;33.00
80230;DHT22;69540;42.136;24.742;2023-07-16T01:23:39;31.00;32.90
80230;DHT22;69540;42.136;24.742;2023-07-16T01:32:03;31.00;32.90
80230;DHT22;69540;42.136;24.742;2023-07-16T01:34:32;31.00;32.90
80230;DHT22;69540;42.136;24.742;2023-07-16T01:37:02;30.90;32.80
80230;DHT22;69540;42.136;24.742;2023-07-16T01:39:30;30.90;32.90
80230;DHT22;69540;42.136;24.742;2023-07-16T01:41:56;30.90;32.80
80230;DHT22;69540;42.136;24.742;2023-07-16T01:44:22;30.90;32.90
80230;DHT22;69540;42.136;24.742;2023-07-16T01:49:32;31.00;32.90
80230;DHT22;69540;42.136;24.742;2023-07-16T01:51:58;30.90;32.80
80230;DHT22;69540;42.136;24.742;2023-07-16T01:54:24;30.90;32.90
80230;DHT22;69540;42.136;24.742;2023-07-16T01:56:50;30.90;32.80
80230;DHT22;69540;42.136;24.742;2023-07-16T01:59:15;31.00;32.90
80230;DHT22;69540;42.136;24.742;2023-07-16T02:01:41;30.90;32.80
80230;DHT22;69540;42.136;24.742;2023-07-16T02:04:07;30.90;32.80
80230;DHT22;69540;42.136;24.742;2023-07-16T02:06:32;30.90;32.80
80230;DHT22;69540;42.136;24.742;2023-07-16T02:08:58;31.00;32.80
80230;DHT22;69540;42.136;24.742;2023-07-16T02:11:23;30.90;32.80
80230;DHT22;69540;42.136;24.742;2023-07-16T02:13:49;30.90;32.80
80230;DHT22;69540;42.136;24.742;2023-07-16T02:16:15;31.00;32.90
80230;DHT22;69540;42.136;24.742;2023-07-16T02:18:40;31.00;32.80
80230;DHT22;69540;42.136;24.742;2023-07-16T02:21:06;30.90;32.80
80230;DHT22;69540;42.136;24.742;2023-07-16T02:23:31;31.00;32.80
80230;DHT22;69540;42.136;24.742;2023-07-16T02:25:57;30.90;32.70
80230;DHT22;69540;42.136;24.742;2023-07-16T02:28:23;31.00;32.80
80230;DHT22;69540;42.136;24.742;2023-07-16T02:30:49;31.00;32.80
80230;DHT22;69540;42.136;24.742;2023-07-16T02:33:16;31.00;32.80
80230;DHT22;69540;42.136;24.742;2023-07-16T02:35:49;31.00;32.80
80230;DHT22;69540;42.136;24.742;2023-07-16T02:38:17;30.90;32.80
80230;DHT22;69540;42.136;24.742;2023-07-16T02:40:46;30.90;32.80
80230;DHT22;69540;42.136;24.742;2023-07-16T02:43:12;30.90;32.80
80230;DHT22;69540;42.136;24.742;2023-07-16T02:45:38;31.00;32.90
80230;DHT22;69540;42.136;24.742;2023-07-16T02:48:05;31.00;32.80
80230;DHT22;69540;42.136;24.742;2023-07-16T02:50:35;30.90;32.80
80230;DHT22;69540;42.136;24.742;2023-07-16T02:53:02;30.90;32.80
80230;DHT22;69540;42.136;24.742;2023-07-16T02:55:28;30.90;32.80
80230;DHT22;69540;42.136;24.742;2023-07-16T02:57:53;31.00;33.00
80230;DHT22;69540;42.136;24.742;2023-07-16T03:00:19;31.00;32.90
80230;DHT22;69540;42.136;24.742;2023-07-16T03:02:45;31.00;32.80
80230;DHT22;69540;42.136;24.742;2023-07-16T03:05:10;30.90;32.80
80230;DHT22;69540;42.136;24.742;2023-07-16T03:07:36;30.90;32.80
80230;DHT22;69540;42.136;24.742;2023-07-16T03:10:02;30.90;32.80
80230;DHT22;69540;42.136;24.742;2023-07-16T03:12:28;31.00;32.90
80230;DHT22;69540;42.136;24.742;2023-07-16T03:14:54;31.00;32.90
80230;DHT22;69540;42.136;24.742;2023-07-16T03:17:20;30.90;32.80
80230;DHT22;69540;42.136;24.742;2023-07-16T03:19:47;31.00;32.90
80230;DHT22;69540;42.136;24.742;2023-07-16T03:22:13;30.90;32.80
80230;DHT22;69540;42.136;24.742;2023-07-16T03:24:39;31.00;32.90
80230;DHT22;69540;42.136;24.742;2023-07-16T03:27:06;30.90;32.80
80230;DHT22;69540;42.136;24.742;2023-07-16T03:29:33;31.00;32.90
80230;DHT22;69540;42.136;24.742;2023-07-16T03:31:59;31.00;32.90
80230;DHT22;69540;42.136;24.742;2023-07-16T03:34:25;31.00;32.80
80230;DHT22;69540;42.136;24.742;2023-07-16T03:36:51;31.00;32.90
80230;DHT22;69540;42.136;24.742;2023-07-16T03:39:17;31.00;32.90
80230;DHT22;69540;42.136;24.742;2023-07-16T03:41:42;30.90;32.80
80230;DHT22;69540;42.136;24.742;2023-07-16T03:44:08;30.90;32.80
80230;DHT22;69540;42.136;24.742;2023-07-16T03:46:34;31.00;32.90
80230;DHT22;69540;42.136;24.742;2023-07-16T03:49:00;31.00;32.90
80230;DHT22;69540;42.136;24.742;2023-07-16T03:51:25;31.00;32.90
80230;DHT22;69540;42.136;24.742;2023-07-16T03:53:51;31.00;32.90
80230;DHT22;69540;42.136;24.742;2023-07-16T03:56:17;31.00;33.00
80230;DHT22;69540;42.136;24.742;2023-07-16T03:58:42;31.00;32.90
80230;DHT22;69540;42.136;24.742;2023-07-16T04:01:09;31.00;33.00
80230;DHT22;69540;42.136;24.742;2023-07-16T04:03:35;31.00;32.90
80230;DHT22;69540;42.136;24.742;2023-07-16T04:06:05;31.00;33.00
80230;DHT22;69540;42.136;24.742;2023-07-16T04:08:31;31.00;32.90
80230;DHT22;69540;42.136;24.742;2023-07-16T04:10:58;31.00;32.90
80230;DHT22;69540;42.136;24.742;2023-07-16T04:13:23;31.00;32.90
80230;DHT22;69540;42.136;24.742;2023-07-16T04:15:49;31.00;32.90
80230;DHT22;69540;42.136;24.742;2023-07-16T04:18:15;31.00;32.90
80230;DHT22;69540;42.136;24.742;2023-07-16T04:20:40;31.00;32.90
80230;DHT22;69540;42.136;24.742;2023-07-16T04:23:06;31.00;32.90
80230;DHT22;69540;42.136;24.742;2023-07-16T04:25:32;31.00;33.00
80230;DHT22;69540;42.136;24.742;2023-07-16T04:27:57;31.00;32.90
80230;DHT22;69540;42.136;24.742;2023-07-16T04:30:23;31.00;32.90
80230;DHT22;69540;42.136;24.742;2023-07-16T04:32:49;31.00;32.90
80230;DHT22;69540;42.136;24.742;2023-07-16T04:35:15;31.00;32.90
80230;DHT22;69540;42.136;24.742;2023-07-16T04:37:40;31.00;32.90
80230;DHT22;69540;42.136;24.742;2023-07-16T04:40:06;31.00;33.00
80230;DHT22;69540;42.136;24.742;2023-07-16T04:42:32;31.00;33.00
80230;DHT22;69540;42.136;24.742;2023-07-16T04:44:58;31.00;32.90
80230;DHT22;69540;42.136;24.742;2023-07-16T04:47:23;31.00;32.90
80230;DHT22;69540;42.136;24.742;2023-07-16T04:49:49;31.00;32.90
80230;DHT22;69540;42.136;24.742;2023-07-16T04:52:15;31.00;32.90
80230;DHT22;69540;42.136;24.742;2023-07-16T04:54:40;31.00;32.90
80230;DHT22;69540;42.136;24.742;2023-07-16T04:57:07;31.00;32.80
80230;DHT22;69540;42.136;24.742;2023-07-16T04:59:33;31.00;33.00
80230;DHT22;69540;42.136;24.742;2023-07-16T05:01:59;31.00;32.90
80230;DHT22;69540;42.136;24.742;2023-07-16T05:04:25;31.00;32.80
80230;DHT22;69540;42.136;24.742;2023-07-16T05:06:52;31.00;33.00
80230;DHT22;69540;42.136;24.742;2023-07-16T05:09:17;31.00;32.80
80230;DHT22;69540;42.136;24.742;2023-07-16T05:11:43;31.00;32.80
80230;DHT22;69540;42.136;24.742;2023-07-16T05:14:09;31.00;32.80
80230;DHT22;69540;42.136;24.742;2023-07-16T05:16:34;31.00;32.80
80230;DHT22;69540;42.136;24.742;2023-07-16T05:19:00;31.00;32.90
80230;DHT22;69540;42.136;24.742;2023-07-16T05:21:25;31.00;32.80
80230;DHT22;69540;42.136;24.742;2023-07-16T05:23:51;31.00;32.80
80230;DHT22;69540;42.136;24.742;2023-07-16T05:26:17;31.00;32.80
80230;DHT22;69540;42.136;24.742;2023-07-16T05:28:42;31.00;32.80
80230;DHT22;69540;42.136;24.742;2023-07-16T05:31:08;31.00;32.80
80230;DHT22;69540;42.136;24.742;2023-07-16T05:33:33;31.00;32.80
80230;DHT22;69540;42.136;24.742;2023-07-16T05:35:59;31.00;32.80
80230;DHT22;69540;42.136;24.742;2023-07-16T05:38:25;31.00;32.70
80230;DHT22;69540;42.136;24.742;2023-07-16T05:40:50;31.00;32.70
80230;DHT22;69540;42.136;24.742;2023-07-16T05:43:16;31.00;32.70
80230;DHT22;69540;42.136;24.742;2023-07-16T05:45:42;31.00;32.70
80230;DHT22;69540;42.136;24.742;2023-07-16T05:48:07;31.10;32.80
80230;DHT22;69540;42.136;24.742;2023-07-16T05:50:33;31.00;32.70
80230;DHT22;69540;42.136;24.742;2023-07-16T05:52:59;31.00;32.70
80230;DHT22;69540;42.136;24.742;2023-07-16T05:55:24;31.00;32.70
80230;DHT22;69540;42.136;24.742;2023-07-16T05:57:50;31.00;32.70
80230;DHT22;69540;42.136;24.742;2023-07-16T06:00:16;31.00;32.70
80230;DHT22;69540;42.136;24.742;2023-07-16T06:02:42;31.00;32.70
80230;DHT22;69540;42.136;24.742;2023-07-16T06:05:08;31.00;32.70
80230;DHT22;69540;42.136;24.742;2023-07-16T06:07:34;31.00;32.70
80230;DHT22;69540;42.136;24.742;2023-07-16T06:10:00;31.00;32.70
80230;DHT22;69540;42.136;24.742;2023-07-16T06:12:25;31.10;32.70
80230;DHT22;69540;42.136;24.742;2023-07-16T06:14:51;31.00;32.70
80230;DHT22;69540;42.136;24.742;2023-07-16T06:17:17;31.00;32.70
80230;DHT22;69540;42.136;24.742;2023-07-16T06:19:42;31.00;32.70
80230;DHT22;69540;42.136;24.742;2023-07-16T06:22:08;31.00;32.60
80230;DHT22;69540;42.136;24.742;2023-07-16T06:24:37;31.00;32.70
80230;DHT22;69540;42.136;24.742;2023-07-16T06:27:02;31.00;32.70
80230;DHT22;69540;42.136;24.742;2023-07-16T06:29:28;31.00;32.70
80230;DHT22;69540;42.136;24.742;2023-07-16T06:31:58;31.00;32.70
80230;DHT22;69540;42.136;24.742;2023-07-16T06:34:24;31.00;32.70
80230;DHT22;69540;42.136;24.742;2023-07-16T06:36:50;31.00;32.70
80230;DHT22;69540;42.136;24.742;2023-07-16T06:39:16;31.00;32.70
80230;DHT22;69540;42.136;24.742;2023-07-16T06:41:41;31.00;32.70
80230;DHT22;69540;42.136;24.742;2023-07-16T06:44:07;31.00;32.70
80230;DHT22;69540;42.136;24.742;2023-07-16T06:46:33;31.00;32.60
80230;DHT22;69540;42.136;24.742;2023-07-16T06:48:58;31.00;32.70
80230;DHT22;69540;42.136;24.742;2023-07-16T06:51:24;31.00;32.60
80230;DHT22;69540;42.136;24.742;2023-07-16T06:53:49;31.00;32.60
80230;DHT22;69540;42.136;24.742;2023-07-16T06:56:15;31.00;32.60
80230;DHT22;69540;42.136;24.742;2023-07-16T06:58:41;31.00;32.60
80230;DHT22;69540;42.136;24.742;2023-07-16T07:01:06;31.00;32.60
80230;DHT22;69540;42.136;24.742;2023-07-16T07:03:32;31.00;32.60
80230;DHT22;69540;42.136;24.742;2023-07-16T07:06:02;31.00;32.60
80230;DHT22;69540;42.136;24.742;2023-07-16T07:08:29;31.10;32.70
80230;DHT22;69540;42.136;24.742;2023-07-16T07:10:55;31.00;32.60
80230;DHT22;69540;42.136;24.742;2023-07-16T07:13:20;31.00;32.60
80230;DHT22;69540;42.136;24.742;2023-07-16T07:15:46;31.00;32.70
80230;DHT22;69540;42.136;24.742;2023-07-16T07:18:12;31.00;32.70
80230;DHT22;69540;42.136;24.742;2023-07-16T07:20:39;31.00;32.60
80230;DHT22;69540;42.136;24.742;2023-07-16T07:23:05;31.10;32.60
80230;DHT22;69540;42.136;24.742;2023-07-16T07:25:31;31.00;32.60
80230;DHT22;69540;42.136;24.742;2023-07-16T07:27:57;31.10;32.60
80230;DHT22;69540;42.136;24.742;2023-07-16T07:30:22;31.10;32.60
80230;DHT22;69540;42.136;24.742;2023-07-16T07:32:48;31.00;32.60
80230;DHT22;69540;42.136;24.742;2023-07-16T07:35:13;31.00;32.60
80230;DHT22;69540;42.136;24.742;2023-07-16T07:37:39;31.00;32.60
80230;DHT22;69540;42.136;24.742;2023-07-16T07:40:05;31.10;32.60
80230;DHT22;69540;42.136;24.742;2023-07-16T07:42:31;31.00;32.60
80230;DHT22;69540;42.136;24.742;2023-07-16T07:44:57;31.00;32.60
80230;DHT22;69540;42.136;24.742;2023-07-16T07:47:22;31.10;32.60
80230;DHT22;69540;42.136;24.742;2023-07-16T07:49:48;31.10;32.70
80230;DHT22;69540;42.136;24.742;2023-07-16T07:52:14;31.10;32.70
80230;DHT22;69540;42.136;24.742;2023-07-16T07:54:39;31.10;32.60
80230;DHT22;69540;42.136;24.742;2023-07-16T07:57:05;31.00;32.60
80230;DHT22;69540;42.136;24.742;2023-07-16T07:59:31;31.10;32.60
80230;DHT22;69540;42.136;24.742;2023-07-16T08:01:58;31.10;32.60
80230;DHT22;69540;42.136;24.742;2023-07-16T08:04:24;31.10;32.60
80230;DHT22;69540;42.136;24.742;2023-07-16T08:06:51;31.10;32.60
80230;DHT22;69540;42.136;24.742;2023-07-16T08:09:16;31.10;32.60
80230;DHT22;69540;42.136;24.742;2023-07-16T08:11:42;31.10;32.60
80230;DHT22;69540;42.136;24.742;2023-07-16T08:14:08;31.10;32.60
80230;DHT22;69540;42.136;24.742;2023-07-16T08:16:33;31.10;32.60
80230;DHT22;69540;42.136;24.742;2023-07-16T08:18:59;31.10;32.60
80230;DHT22;69540;42.136;24.742;2023-07-16T08:21:25;31.10;32.60
80230;DHT22;69540;42.136;24.742;2023-07-16T08:23:51;31.10;32.60
80230;DHT22;69540;42.136;24.742;2023-07-16T08:26:17;31.10;32.60
80230;DHT22;69540;42.136;24.742;2023-07-16T08:28:43;31.10;32.50
80230;DHT22;69540;42.136;24.742;2023-07-16T08:31:10;31.10;32.60
80230;DHT22;69540;42.136;24.742;2023-07-16T08:33:37;31.10;32.60
80230;DHT22;69540;42.136;24.742;2023-07-16T08:36:03;31.10;32.60
80230;DHT22;69540;42.136;24.742;2023-07-16T08:38:28;31.10;32.60
80230;DHT22;69540;42.136;24.742;2023-07-16T08:40:54;31.10;32.60
80230;DHT22;69540;42.136;24.742;2023-07-16T08:43:20;31.10;32.60
80230;DHT22;69540;42.136;24.742;2023-07-16T08:45:46;31.10;32.50
80230;DHT22;69540;42.136;24.742;2023-07-16T08:48:13;31.10;32.60
80230;DHT22;69540;42.136;24.742;2023-07-16T08:50:42;31.10;32.60
80230;DHT22;69540;42.136;24.742;2023-07-16T08:53:07;31.10;32.50
80230;DHT22;69540;42.136;24.742;2023-07-16T08:55:34;31.10;32.50
80230;DHT22;69540;42.136;24.742;2023-07-16T08:58:04;31.10;32.60
80230;DHT22;69540;42.136;24.742;2023-07-16T09:00:30;31.10;32.60
80230;DHT22;69540;42.136;24.742;2023-07-16T09:02:56;31.10;32.60
80230;DHT22;69540;42.136;24.742;2023-07-16T09:05:22;31.10;32.60
80230;DHT22;69540;42.136;24.742;2023-07-16T09:07:49;31.10;32.60
80230;DHT22;69540;42.136;24.742;2023-07-16T09:10:15;31.10;32.60
80230;DHT22;69540;42.136;24.742;2023-07-16T09:12:44;31.10;32.50
80230;DHT22;69540;42.136;24.742;2023-07-16T09:15:11;31.10;32.50
80230;DHT22;69540;42.136;24.742;2023-07-16T09:17:37;31.10;32.50
80230;DHT22;69540;42.136;24.742;2023-07-16T09:20:04;31.10;32.50
80230;DHT22;69540;42.136;24.742;2023-07-16T09:22:33;31.10;32.50
80230;DHT22;69540;42.136;24.742;2023-07-16T09:25:02;31.10;32.50
80230;DHT22;69540;42.136;24.742;2023-07-16T09:27:29;31.10;32.50
80230;DHT22;69540;42.136;24.742;2023-07-16T09:29:55;31.10;32.50
80230;DHT22;69540;42.136;24.742;2023-07-16T09:32:20;31.10;32.50
80230;DHT22;69540;42.136;24.742;2023-07-16T09:34:49;31.10;32.50
80230;DHT22;69540;42.136;24.742;2023-07-16T09:37:17;31.10;32.50
80230;DHT22;69540;42.136;24.742;2023-07-16T09:39:45;31.10;32.50
80230;DHT22;69540;42.136;24.742;2023-07-16T09:42:12;31.10;32.50
80230;DHT22;69540;42.136;24.742;2023-07-16T09:44:40;31.10;32.50
80230;DHT22;69540;42.136;24.742;2023-07-16T09:47:07;31.10;32.50
80230;DHT22;69540;42.136;24.742;2023-07-16T09:49:33;31.10;32.50
80230;DHT22;69540;42.136;24.742;2023-07-16T09:52:00;31.10;32.40
80230;DHT22;69540;42.136;24.742;2023-07-16T09:54:31;31.10;32.50
80230;DHT22;69540;42.136;24.742;2023-07-16T09:56:58;31.10;32.50
80230;DHT22;69540;42.136;24.742;2023-07-16T09:59:27;31.10;32.50
80230;DHT22;69540;42.136;24.742;2023-07-16T10:01:55;31.10;32.50
80230;DHT22;69540;42.136;24.742;2023-07-16T10:04:22;31.10;32.40
80230;DHT22;69540;42.136;24.742;2023-07-16T10:07:18;31.10;32.40
80230;DHT22;69540;42.136;24.742;2023-07-16T10:09:52;31.10;32.50
80230;DHT22;69540;42.136;24.742;2023-07-16T10:12:20;31.10;32.50
80230;DHT22;69540;42.136;24.742;2023-07-16T10:14:53;31.10;32.40
80230;DHT22;69540;42.136;24.742;2023-07-16T10:17:23;31.10;32.50
80230;DHT22;69540;42.136;24.742;2023-07-16T10:19:57;31.10;32.40
80230;DHT22;69540;42.136;24.742;2023-07-16T10:24:58;31.10;32.50
80230;DHT22;69540;42.136;24.742;2023-07-16T10:27:31;31.10;32.40
80230;DHT22;69540;42.136;24.742;2023-07-16T10:29:57;31.10;32.40
80230;DHT22;69540;42.136;24.742;2023-07-16T10:32:26;31.10;32.40
80230;DHT22;69540;42.136;24.742;2023-07-16T10:34:53;31.10;32.40
80230;DHT22;69540;42.136;24.742;2023-07-16T10:37:19;31.10;32.50
80230;DHT22;69540;42.136;24.742;2023-07-16T10:39:53;31.10;32.40
80230;DHT22;69540;42.136;24.742;2023-07-16T10:42:20;31.10;32.40
80230;DHT22;69540;42.136;24.742;2023-07-16T10:44:51;31.10;32.50
80230;DHT22;69540;42.136;24.742;2023-07-16T10:47:39;31.20;32.50
80230;DHT22;69540;42.136;24.742;2023-07-16T10:50:09;31.10;32.40
80230;DHT22;69540;42.136;24.742;2023-07-16T10:52:35;31.20;32.50
80230;DHT22;69540;42.136;24.742;2023-07-16T10:55:02;31.10;32.40
80230;DHT22;69540;42.136;24.742;2023-07-16T10:57:28;31.10;32.60
80230;DHT22;69540;42.136;24.742;2023-07-16T10:59:58;31.10;32.50
80230;DHT22;69540;42.136;24.742;2023-07-16T11:02:25;31.10;32.40
80230;DHT22;69540;42.136;24.742;2023-07-16T11:04:51;31.10;32.40
80230;DHT22;69540;42.136;24.742;2023-07-16T11:07:21;31.10;32.40
80230;DHT22;69540;42.136;24.742;2023-07-16T11:09:49;31.10;32.40
80230;DHT22;69540;42.136;24.742;2023-07-16T11:12:17;31.10;32.40
80230;DHT22;69540;42.136;24.742;2023-07-16T11:14:48;31.20;32.50
80230;DHT22;69540;42.136;24.742;2023-07-16T11:17:14;31.10;32.50
80230;DHT22;69540;42.136;24.742;2023-07-16T11:19:44;31.10;32.50
80230;DHT22;69540;42.136;24.742;2023-07-16T11:22:09;31.10;32.50
80230;DHT22;69540;42.136;24.742;2023-07-16T11:24:39;31.10;32.40
80230;DHT22;69540;42.136;24.742;2023-07-16T11:27:13;31.20;32.60
80230;DHT22;69540;42.136;24.742;2023-07-16T11:29:39;31.10;32.40
80230;DHT22;69540;42.136;24.742;2023-07-16T11:32:07;31.10;33.60
80230;DHT22;69540;42.136;24.742;2023-07-16T11:34:33;31.10;32.40
80230;DHT22;69540;42.136;24.742;2023-07-16T11:37:11;31.20;32.60
80230;DHT22;69540;42.136;24.742;2023-07-16T11:39:37;31.20;32.50
80230;DHT22;69540;42.136;24.742;2023-07-16T11:42:04;31.20;32.60
80230;DHT22;69540;42.136;24.742;2023-07-16T11:44:34;31.10;32.40
80230;DHT22;69540;42.136;24.742;2023-07-16T11:47:01;31.20;32.50
80230;DHT22;69540;42.136;24.742;2023-07-16T11:49:27;31.20;32.50
80230;DHT22;69540;42.136;24.742;2023-07-16T11:51:52;31.20;32.50
80230;DHT22;69540;42.136;24.742;2023-07-16T11:54:18;31.10;32.40
80230;DHT22;69540;42.136;24.742;2023-07-16T11:56:44;31.20;32.60
80230;DHT22;69540;42.136;24.742;2023-07-16T11:59:09;31.20;32.60
80230;DHT22;69540;42.136;24.742;2023-07-16T12:01:35;31.20;32.50
80230;DHT22;69540;42.136;24.742;2023-07-16T12:04:00;31.20;32.50
80230;DHT22;69540;42.136;24.742;2023-07-16T12:06:26;31.20;32.60
80230;DHT22;69540;42.136;24.742;2023-07-16T12:08:52;31.20;32.60
80230;DHT22;69540;42.136;24.742;2023-07-16T12:11:17;31.20;32.60
80230;DHT22;69540;42.136;24.742;2023-07-16T12:13:43;31.20;32.60
80230;DHT22;69540;42.136;24.742;2023-07-16T12:16:08;31.20;32.50
80230;DHT22;69540;42.136;24.742;2023-07-16T12:18:34;31.20;32.50
80230;DHT22;69540;42.136;24.742;2023-07-16T12:21:00;31.20;33.60
80230;DHT22;69540;42.136;24.742;2023-07-16T12:23:25;31.20;32.50
80230;DHT22;69540;42.136;24.742;2023-07-16T12:25:51;31.20;32.70
80230;DHT22;69540;42.136;24.742;2023-07-16T12:28:17;31.20;32.60
80230;DHT22;69540;42.136;24.742;2023-07-16T12:30:42;31.20;32.50
80230;DHT22;69540;42.136;24.742;2023-07-16T12:33:08;31.20;33.60
80230;DHT22;69540;42.136;24.742;2023-07-16T12:35:33;31.20;32.50
80230;DHT22;69540;42.136;24.742;2023-07-16T12:37:59;31.20;32.50
80230;DHT22;69540;42.136;24.742;2023-07-16T12:40:25;31.20;32.60
80230;DHT22;69540;42.136;24.742;2023-07-16T12:42:51;31.20;32.60
80230;DHT22;69540;42.136;24.742;2023-07-16T12:45:17;31.20;32.50
80230;DHT22;69540;42.136;24.742;2023-07-16T12:47:42;31.30;32.60
80230;DHT22;69540;42.136;24.742;2023-07-16T12:50:08;31.20;32.50
80230;DHT22;69540;42.136;24.742;2023-07-16T12:52:34;31.20;32.50
80230;DHT22;69540;42.136;24.742;2023-07-16T12:54:59;31.20;32.50
80230;DHT22;69540;42.136;24.742;2023-07-16T12:57:25;31.30;32.50
80230;DHT22;69540;42.136;24.742;2023-07-16T12:59:51;31.30;32.60
80230;DHT22;69540;42.136;24.742;2023-07-16T13:02:16;31.30;32.60
80230;DHT22;69540;42.136;24.742;2023-07-16T13:04:42;31.30;32.60
80230;DHT22;69540;42.136;24.742;2023-07-16T13:07:08;31.30;32.60
80230;DHT22;69540;42.136;24.742;2023-07-16T13:09:34;31.30;32.60
80230;DHT22;69540;42.136;24.742;2023-07-16T13:11:59;31.30;32.50
80230;DHT22;69540;42.136;24.742;2023-07-16T13:14:26;31.30;32.60
80230;DHT22;69540;42.136;24.742;2023-07-16T13:16:51;31.30;32.50
80230;DHT22;69540;42.136;24.742;2023-07-16T13:19:17;31.30;32.60
80230;DHT22;69540;42.136;24.742;2023-07-16T13:21:43;31.30;32.50
80230;DHT22;69540;42.136;24.742;2023-07-16T13:24:08;31.30;32.50
80230;DHT22;69540;42.136;24.742;2023-07-16T13:26:34;31.30;32.60
80230;DHT22;69540;42.136;24.742;2023-07-16T13:29:00;31.30;32.50
80230;DHT22;69540;42.136;24.742;2023-07-16T13:31:26;31.30;32.50
80230;DHT22;69540;42.136;24.742;2023-07-16T13:33:51;31.40;32.70
80230;DHT22;69540;42.136;24.742;2023-07-16T13:36:17;31.40;32.60
80230;DHT22;69540;42.136;24.742;2023-07-16T13:38:42;31.40;32.60
80230;DHT22;69540;42.136;24.742;2023-07-16T13:41:08;31.40;32.50
80230;DHT22;69540;42.136;24.742;2023-07-16T13:43:35;31.40;32.50
80230;DHT22;69540;42.136;24.742;2023-07-16T13:46:00;31.40;32.50
80230;DHT22;69540;42.136;24.742;2023-07-16T13:48:26;31.40;32.50
80230;DHT22;69540;42.136;24.742;2023-07-16T13:50:52;31.40;32.50
80230;DHT22;69540;42.136;24.742;2023-07-16T13:53:17;31.40;32.50
80230;DHT22;69540;42.136;24.742;2023-07-16T13:55:43;31.40;32.50
80230;DHT22;69540;42.136;24.742;2023-07-16T13:58:09;31.40;32.50
80230;DHT22;69540;42.136;24.742;2023-07-16T14:00:36;31.50;32.50
80230;DHT22;69540;42.136;24.742;2023-07-16T14:03:01;31.50;32.50
80230;DHT22;69540;42.136;24.742;2023-07-16T14:05:27;31.50;32.40
80230;DHT22;69540;42.136;24.742;2023-07-16T14:07:53;31.50;32.60
80230;DHT22;69540;42.136;24.742;2023-07-16T14:10:19;31.50;32.70
80230;DHT22;69540;42.136;24.742;2023-07-16T14:12:45;31.50;32.90
80230;DHT22;69540;42.136;24.742;2023-07-16T14:15:10;31.50;32.80
80230;DHT22;69540;42.136;24.742;2023-07-16T14:17:36;31.50;32.70
80230;DHT22;69540;42.136;24.742;2023-07-16T14:20:02;31.60;32.70
80230;DHT22;69540;42.136;24.742;2023-07-16T14:22:28;31.50;32.50
80230;DHT22;69540;42.136;24.742;2023-07-16T14:24:54;31.60;32.50
80230;DHT22;69540;42.136;24.742;2023-07-16T14:27:20;31.60;32.50
80230;DHT22;69540;42.136;24.742;2023-07-16T14:29:46;31.60;32.40
80230;DHT22;69540;42.136;24.742;2023-07-16T14:32:12;31.60;32.40
80230;DHT22;69540;42.136;24.742;2023-07-16T14:34:38;31.60;32.40
80230;DHT22;69540;42.136;24.742;2023-07-16T14:37:04;31.60;32.40
80230;DHT22;69540;42.136;24.742;2023-07-16T14:39:30;31.60;32.30
80230;DHT22;69540;42.136;24.742;2023-07-16T14:41:55;31.60;32.40
80230;DHT22;69540;42.136;24.742;2023-07-16T14:44:21;31.70;32.30
80230;DHT22;69540;42.136;24.742;2023-07-16T14:46:47;31.70;32.40
80230;DHT22;69540;42.136;24.742;2023-07-16T14:49:12;31.70;32.30
80230;DHT22;69540;42.136;24.742;2023-07-16T14:51:38;31.70;32.30
80230;DHT22;69540;42.136;24.742;2023-07-16T14:54:08;31.70;32.30
80230;DHT22;69540;42.136;24.742;2023-07-16T14:56:34;31.70;32.30
80230;DHT22;69540;42.136;24.742;2023-07-16T14:59:00;31.70;32.20
80230;DHT22;69540;42.136;24.742;2023-07-16T15:01:25;31.70;32.20
80230;DHT22;69540;42.136;24.742;2023-07-16T15:03:51;31.70;32.20
80230;DHT22;69540;42.136;24.742;2023-07-16T15:06:17;31.70;32.30
80230;DHT22;69540;42.136;24.742;2023-07-16T15:08:43;31.70;32.20
80230;DHT22;69540;42.136;24.742;2023-07-16T15:11:08;31.80;32.30
80230;DHT22;69540;42.136;24.742;2023-07-16T15:13:34;31.70;32.30
80230;DHT22;69540;42.136;24.742;2023-07-16T15:15:59;31.80;32.30
80230;DHT22;69540;42.136;24.742;2023-07-16T15:18:26;31.80;32.20
80230;DHT22;69540;42.136;24.742;2023-07-16T15:20:59;31.80;32.20
80230;DHT22;69540;42.136;24.742;2023-07-16T15:23:26;31.80;32.20
80230;DHT22;69540;42.136;24.742;2023-07-16T15:25:53;31.80;32.30